Time,TemperatureF,DewpointF,PressureIn,WindDirection,WindDirectionDegrees,WindSpeedMPH,WindSpeedGustMPH,Humidity,HourlyPrecipIn,Conditions,Clouds,dailyrainin,SolarRadiationWatts/m^2,SoftwareType,DateUTC
2013-10-05 00:04:00,75.0,69.0,-100.00,SSE,150,2.0,9.0,82,0.00,,,0.06,0.000000,,2013-10-05 05:04:00,
2013-10-05 00:13:00,75.0,69.0,-100.00,SSE,150,2.0,9.0,82,0.00,,,0.06,0.000000,,2013-10-05 05:13:00,
2013-10-05 00:22:00,75.0,69.0,-100.00,SSE,150,2.0,9.0,82,0.00,,,0.06,0.000000,,2013-10-05 05:22:00,
2013-10-05 00:32:00,74.0,69.0,-100.00,SSE,159,3.0,6.0,85,0.00,,,0.06,0.000000,,2013-10-05 05:32:00,
2013-10-05 00:52:00,74.0,69.0,-100.00,SSE,159,3.0,6.0,85,0.00,,,0.06,0.000000,,2013-10-05 05:52:00,
2013-10-05 01:02:00,74.0,69.0,-100.00,SSE,159,3.0,6.0,85,0.00,,,0.06,0.000000,,2013-10-05 06:02:00,
2013-10-05 01:12:00,74.0,69.0,-100.00,SSE,159,3.0,6.0,85,0.00,,,0.06,0.000000,,2013-10-05 06:12:00,
2013-10-05 01:22:00,74.0,69.0,-100.00,SSE,159,3.0,6.0,85,0.00,,,0.06,0.000000,,2013-10-05 06:22:00,
2013-10-05 01:32:00,73.0,69.0,-100.00,ESE,119,1.0,5.0,87,0.00,,,0.06,0.000000,,2013-10-05 06:32:00,
2013-10-05 01:52:00,73.0,69.0,-100.00,ESE,119,1.0,5.0,87,0.00,,,0.06,0.000000,,2013-10-05 06:52:00,
2013-10-05 02:02:00,73.0,69.0,-100.00,ESE,119,1.0,5.0,87,0.00,,,0.06,0.000000,,2013-10-05 07:02:00,
2013-10-05 02:12:00,73.0,69.0,-100.00,ESE,119,1.0,5.0,87,0.00,,,0.06,0.000000,,2013-10-05 07:12:00,
2013-10-05 02:22:00,73.0,69.0,-100.00,ESE,119,1.0,5.0,87,0.00,,,0.06,0.000000,,2013-10-05 07:22:00,
2013-10-05 02:32:00,72.0,69.0,-100.00,East,86,2.0,3.0,89,0.00,,,0.06,0.000000,,2013-10-05 07:32:00,
2013-10-05 03:12:00,72.0,69.0,-100.00,East,86,2.0,3.0,89,0.00,,,0.06,0.000000,,2013-10-05 08:12:00,
2013-10-05 03:23:00,72.0,69.0,-100.00,East,86,2.0,3.0,89,0.00,,,0.06,0.000000,,2013-10-05 08:23:00,
2013-10-05 03:32:00,72.0,69.0,-100.00,ENE,74,0.0,4.0,90,0.00,,,0.06,0.000000,,2013-10-05 08:32:00,
2013-10-05 03:52:00,72.0,69.0,-100.00,ENE,74,0.0,4.0,90,0.00,,,0.06,0.000000,,2013-10-05 08:52:00,
2013-10-05 04:02:00,72.0,69.0,-100.00,ENE,74,0.0,4.0,90,0.00,,,0.06,0.000000,,2013-10-05 09:02:00,
2013-10-05 04:11:00,72.0,69.0,-100.00,ENE,74,0.0,4.0,90,0.00,,,0.06,0.000000,,2013-10-05 09:11:00,
2013-10-05 04:22:00,72.0,69.0,-100.00,ENE,74,0.0,4.0,90,0.00,,,0.06,0.000000,,2013-10-05 09:22:00,
2013-10-05 04:32:00,72.0,69.0,-100.00,East,88,0.0,0.0,90,0.00,,,0.06,0.000000,,2013-10-05 09:32:00,
2013-10-05 04:54:00,72.0,69.0,-100.00,East,88,0.0,0.0,90,0.00,,,0.06,0.000000,,2013-10-05 09:54:00,
2013-10-05 05:03:00,72.0,69.0,-100.00,East,88,0.0,0.0,90,0.00,,,0.06,0.000000,,2013-10-05 10:03:00,
2013-10-05 05:12:00,72.0,69.0,-100.00,East,88,0.0,0.0,90,0.00,,,0.06,0.000000,,2013-10-05 10:12:00,
2013-10-05 05:23:00,72.0,69.0,-100.00,East,88,0.0,0.0,90,0.00,,,0.06,0.000000,,2013-10-05 10:23:00,
2013-10-05 05:32:00,72.0,69.0,-100.00,ENE,62,2.0,6.0,91,0.00,,,0.06,0.000000,,2013-10-05 10:32:00,
2013-10-05 05:54:00,72.0,69.0,-100.00,ENE,62,2.0,6.0,91,0.00,,,0.06,0.000000,,2013-10-05 10:54:00,
2013-10-05 06:02:00,72.0,69.0,-100.00,ENE,62,2.0,6.0,91,0.00,,,0.06,0.000000,,2013-10-05 11:02:00,
2013-10-05 06:11:00,72.0,69.0,-100.00,ENE,62,2.0,6.0,91,0.00,,,0.06,0.000000,,2013-10-05 11:11:00,
2013-10-05 06:22:00,72.0,69.0,-100.00,ENE,62,2.0,6.0,91,0.00,,,0.06,0.000000,,2013-10-05 11:22:00,
2013-10-05 06:32:00,72.0,69.0,-100.00,ENE,74,3.0,6.0,91,0.00,,,0.06,0.000000,,2013-10-05 11:32:00,
2013-10-05 06:52:00,72.0,69.0,-100.00,ENE,74,3.0,6.0,91,0.00,,,0.06,0.000000,,2013-10-05 11:52:00,
2013-10-05 07:02:00,72.0,69.0,-100.00,ENE,74,3.0,6.0,91,0.00,,,0.06,0.000000,,2013-10-05 12:02:00,
2013-10-05 07:12:00,72.0,69.0,-100.00,ENE,74,3.0,6.0,91,0.00,,,0.06,0.000000,,2013-10-05 12:12:00,
2013-10-05 07:22:00,72.0,69.0,-100.00,ENE,74,3.0,6.0,91,0.00,,,0.06,0.000000,,2013-10-05 12:22:00,
2013-10-05 07:32:00,72.0,69.0,-100.00,East,92,3.0,7.0,91,0.00,,,0.06,3.000000,,2013-10-05 12:32:00,
2013-10-05 07:53:00,72.0,69.0,-100.00,East,92,3.0,7.0,91,0.00,,,0.06,3.000000,,2013-10-05 12:53:00,
2013-10-05 08:02:00,72.0,69.0,-100.00,East,92,3.0,7.0,91,0.00,,,0.06,3.000000,,2013-10-05 13:02:00,
2013-10-05 08:12:00,72.0,69.0,-100.00,East,92,3.0,7.0,91,0.00,,,0.06,3.000000,,2013-10-05 13:12:00,
2013-10-05 08:22:00,72.0,69.0,-100.00,East,92,3.0,7.0,91,0.00,,,0.06,3.000000,,2013-10-05 13:22:00,
2013-10-05 08:32:00,73.0,70.0,-100.00,East,92,3.0,7.0,91,0.00,,,0.06,47.000000,,2013-10-05 13:32:00,
2013-10-05 08:52:00,73.0,70.0,-100.00,East,92,3.0,7.0,91,0.00,,,0.06,47.000000,,2013-10-05 13:52:00,
2013-10-05 09:02:00,73.0,70.0,-100.00,East,92,3.0,7.0,91,0.00,,,0.06,47.000000,,2013-10-05 14:02:00,
2013-10-05 09:12:00,73.0,70.0,-100.00,East,92,3.0,7.0,91,0.00,,,0.06,47.000000,,2013-10-05 14:12:00,
2013-10-05 09:22:00,73.0,70.0,-100.00,East,92,3.0,7.0,91,0.00,,,0.06,47.000000,,2013-10-05 14:22:00,
2013-10-05 09:32:00,78.0,73.0,-100.00,ESE,113,4.0,9.0,84,0.00,,,0.06,219.000000,,2013-10-05 14:32:00,
2013-10-05 09:52:00,78.0,73.0,-100.00,ESE,113,4.0,9.0,84,0.00,,,0.06,219.000000,,2013-10-05 14:52:00,
2013-10-05 10:02:00,78.0,73.0,-100.00,ESE,113,4.0,9.0,84,0.00,,,0.06,219.000000,,2013-10-05 15:02:00,
2013-10-05 10:12:00,78.0,73.0,-100.00,ESE,113,4.0,9.0,84,0.00,,,0.06,219.000000,,2013-10-05 15:12:00,
2013-10-05 10:22:00,78.0,73.0,-100.00,ESE,113,4.0,9.0,84,0.00,,,0.06,219.000000,,2013-10-05 15:22:00,
2013-10-05 10:32:00,81.0,72.0,-100.00,SSE,167,7.0,12.0,73,0.00,,,0.06,458.000000,,2013-10-05 15:32:00,
2013-10-05 10:54:00,81.0,72.0,-100.00,SSE,167,7.0,12.0,73,0.00,,,0.06,458.000000,,2013-10-05 15:54:00,
2013-10-05 11:04:00,81.0,72.0,-100.00,SSE,167,7.0,12.0,73,0.00,,,0.06,458.000000,,2013-10-05 16:04:00,
2013-10-05 11:13:00,81.0,72.0,-100.00,SSE,167,7.0,12.0,73,0.00,,,0.06,458.000000,,2013-10-05 16:13:00,
2013-10-05 11:23:00,81.0,72.0,-100.00,SSE,167,7.0,12.0,73,0.00,,,0.06,458.000000,,2013-10-05 16:23:00,
2013-10-05 11:32:00,84.0,71.0,-100.00,SSE,149,5.0,11.0,65,0.00,,,0.02,504.000000,,2013-10-05 16:32:00,
2013-10-05 11:53:00,84.0,71.0,-100.00,SSE,149,5.0,11.0,65,0.00,,,0.02,504.000000,,2013-10-05 16:53:00,
2013-10-05 12:03:00,84.0,71.0,-100.00,SSE,149,5.0,11.0,65,0.00,,,0.02,504.000000,,2013-10-05 17:03:00,
2013-10-05 12:12:00,84.0,71.0,-100.00,SSE,149,5.0,11.0,65,0.00,,,0.02,504.000000,,2013-10-05 17:12:00,
2013-10-05 12:22:00,84.0,71.0,-100.00,SSE,149,5.0,11.0,65,0.00,,,0.02,504.000000,,2013-10-05 17:22:00,
2013-10-05 12:32:00,85.0,70.0,-100.00,SSE,167,7.0,12.0,61,0.00,,,0.02,586.000000,,2013-10-05 17:32:00,
2013-10-05 12:53:00,85.0,70.0,-100.00,SSE,167,7.0,12.0,61,0.00,,,0.02,586.000000,,2013-10-05 17:53:00,
2013-10-05 13:02:00,85.0,70.0,-100.00,SSE,167,7.0,12.0,61,0.00,,,0.02,586.000000,,2013-10-05 18:02:00,
2013-10-05 13:12:00,85.0,70.0,-100.00,SSE,167,7.0,12.0,61,0.00,,,0.02,586.000000,,2013-10-05 18:12:00,
2013-10-05 13:22:00,85.0,70.0,-100.00,SSE,167,7.0,12.0,61,0.00,,,0.02,586.000000,,2013-10-05 18:22:00,
2013-10-05 13:32:00,85.0,71.0,-100.00,SE,146,3.0,10.0,64,0.00,,,0.02,430.000000,,2013-10-05 18:32:00,
2013-10-05 13:52:00,85.0,71.0,-100.00,SE,146,3.0,10.0,64,0.00,,,0.02,430.000000,,2013-10-05 18:52:00,
2013-10-05 14:02:00,85.0,71.0,-100.00,SE,146,3.0,10.0,64,0.00,,,0.02,430.000000,,2013-10-05 19:02:00,
2013-10-05 14:11:00,85.0,71.0,-100.00,SE,146,3.0,10.0,64,0.00,,,0.02,430.000000,,2013-10-05 19:11:00,
2013-10-05 14:22:00,85.0,71.0,-100.00,SE,146,3.0,10.0,64,0.00,,,0.02,430.000000,,2013-10-05 19:22:00,
2013-10-05 14:32:00,82.0,74.0,-100.00,SSE,158,1.0,9.0,77,0.02,,,0.04,267.000000,,2013-10-05 19:32:00,
2013-10-05 14:52:00,82.0,74.0,-100.00,SSE,158,1.0,9.0,77,0.02,,,0.04,267.000000,,2013-10-05 19:52:00,
2013-10-05 15:02:00,82.0,74.0,-100.00,SSE,158,1.0,9.0,77,0.02,,,0.04,267.000000,,2013-10-05 20:02:00,
2013-10-05 15:11:00,82.0,74.0,-100.00,SSE,158,1.0,9.0,77,0.02,,,0.04,267.000000,,2013-10-05 20:11:00,
2013-10-05 15:22:00,82.0,74.0,-100.00,SSE,158,1.0,9.0,77,0.02,,,0.04,267.000000,,2013-10-05 20:22:00,
2013-10-05 15:32:00,86.0,72.0,-100.00,East,87,4.0,10.0,63,0.00,,,0.04,523.000000,,2013-10-05 20:32:00,
2013-10-05 15:52:00,86.0,72.0,-100.00,East,87,4.0,10.0,63,0.00,,,0.04,523.000000,,2013-10-05 20:52:00,
2013-10-05 16:01:00,86.0,72.0,-100.00,East,87,4.0,10.0,63,0.00,,,0.04,523.000000,,2013-10-05 21:01:00,
2013-10-05 16:12:00,86.0,72.0,-100.00,East,87,4.0,10.0,63,0.00,,,0.04,523.000000,,2013-10-05 21:12:00,
2013-10-05 16:22:00,86.0,72.0,-100.00,East,87,4.0,10.0,63,0.00,,,0.04,523.000000,,2013-10-05 21:22:00,
2013-10-05 16:32:00,84.0,72.0,-100.00,ESE,114,5.0,10.0,67,0.00,,,0.04,295.000000,,2013-10-05 21:32:00,
2013-10-05 16:54:00,84.0,72.0,-100.00,ESE,114,5.0,10.0,67,0.00,,,0.04,295.000000,,2013-10-05 21:54:00,
2013-10-05 17:04:00,84.0,72.0,-100.00,ESE,114,5.0,10.0,67,0.00,,,0.04,295.000000,,2013-10-05 22:04:00,
2013-10-05 17:13:00,84.0,72.0,-100.00,ESE,114,5.0,10.0,67,0.00,,,0.04,295.000000,,2013-10-05 22:13:00,
2013-10-05 17:24:00,84.0,72.0,-100.00,ESE,114,5.0,10.0,67,0.00,,,0.04,295.000000,,2013-10-05 22:24:00,
2013-10-05 17:32:00,82.0,69.0,-100.00,SSE,157,5.0,10.0,65,0.00,,,0.02,189.000000,,2013-10-05 22:32:00,
2013-10-05 17:53:00,82.0,69.0,-100.00,SSE,157,5.0,10.0,65,0.00,,,0.02,189.000000,,2013-10-05 22:53:00,
2013-10-05 18:02:00,82.0,69.0,-100.00,SSE,157,5.0,10.0,65,0.00,,,0.02,189.000000,,2013-10-05 23:02:00,
2013-10-05 18:13:00,82.0,69.0,-100.00,SSE,157,5.0,10.0,65,0.00,,,0.02,189.000000,,2013-10-05 23:13:00,
2013-10-05 18:22:00,82.0,69.0,-100.00,SSE,157,5.0,10.0,65,0.00,,,0.02,189.000000,,2013-10-05 23:22:00,
2013-10-05 18:32:00,78.0,71.0,-100.00,South,188,5.0,12.0,80,0.00,,,0.02,47.000000,,2013-10-05 23:32:00,
2013-10-05 18:53:00,78.0,71.0,-100.00,South,188,5.0,12.0,80,0.00,,,0.02,47.000000,,2013-10-05 23:53:00,
2013-10-05 19:02:00,78.0,71.0,-100.00,South,188,5.0,12.0,80,0.00,,,0.02,47.000000,,2013-10-06 00:02:00,
2013-10-05 19:12:00,78.0,71.0,-100.00,South,188,5.0,12.0,80,0.00,,,0.02,47.000000,,2013-10-06 00:12:00,
2013-10-05 19:23:00,78.0,71.0,-100.00,South,188,5.0,12.0,80,0.00,,,0.02,47.000000,,2013-10-06 00:23:00,
2013-10-05 19:32:00,77.0,71.0,-100.00,SSE,157,1.0,7.0,81,0.00,,,0.02,2.000000,,2013-10-06 00:32:00,
2013-10-05 19:52:00,77.0,71.0,-100.00,SSE,157,1.0,7.0,81,0.00,,,0.02,2.000000,,2013-10-06 00:52:00,
2013-10-05 20:02:00,77.0,71.0,-100.00,SSE,157,1.0,7.0,81,0.00,,,0.02,2.000000,,2013-10-06 01:02:00,
2013-10-05 20:11:00,77.0,71.0,-100.00,SSE,157,1.0,7.0,81,0.00,,,0.02,2.000000,,2013-10-06 01:11:00,
2013-10-05 20:22:00,77.0,71.0,-100.00,SSE,157,1.0,7.0,81,0.00,,,0.02,2.000000,,2013-10-06 01:22:00,
2013-10-05 20:32:00,76.0,71.0,-100.00,WSW,258,0.0,4.0,85,0.00,,,0.02,0.000000,,2013-10-06 01:32:00,
2013-10-05 20:52:00,76.0,71.0,-100.00,WSW,258,0.0,4.0,85,0.00,,,0.02,0.000000,,2013-10-06 01:52:00,
2013-10-05 21:02:00,76.0,71.0,-100.00,WSW,258,0.0,4.0,85,0.00,,,0.02,0.000000,,2013-10-06 02:02:00,
2013-10-05 21:12:00,76.0,71.0,-100.00,WSW,258,0.0,4.0,85,0.00,,,0.02,0.000000,,2013-10-06 02:12:00,
2013-10-05 21:22:00,76.0,71.0,-100.00,WSW,258,0.0,4.0,85,0.00,,,0.02,0.000000,,2013-10-06 02:22:00,
2013-10-05 21:32:00,76.0,72.0,-100.00,SSW,197,2.0,4.0,86,0.00,,,0.02,0.000000,,2013-10-06 02:32:00,
2013-10-05 21:53:00,76.0,72.0,-100.00,SSW,197,2.0,4.0,86,0.00,,,0.02,0.000000,,2013-10-06 02:53:00,
2013-10-05 22:02:00,76.0,72.0,-100.00,SSW,197,2.0,4.0,86,0.00,,,0.02,0.000000,,2013-10-06 03:02:00,
2013-10-05 22:12:00,76.0,72.0,-100.00,SSW,197,2.0,4.0,86,0.00,,,0.02,0.000000,,2013-10-06 03:12:00,
2013-10-05 22:22:00,76.0,72.0,-100.00,SSW,197,2.0,4.0,86,0.00,,,0.02,0.000000,,2013-10-06 03:22:00,
2013-10-05 22:32:00,75.0,71.0,-100.00,NNW,334,2.0,4.0,87,0.00,,,0.02,0.000000,,2013-10-06 03:32:00,
2013-10-05 22:54:00,75.0,71.0,-100.00,NNW,334,2.0,4.0,87,0.00,,,0.02,0.000000,,2013-10-06 03:54:00,
2013-10-05 23:13:00,75.0,71.0,-100.00,NNW,334,2.0,4.0,87,0.00,,,0.02,0.000000,,2013-10-06 04:13:00,
2013-10-05 23:24:00,75.0,71.0,-100.00,NNW,334,2.0,4.0,87,0.00,,,0.02,0.000000,,2013-10-06 04:24:00,
2013-10-05 23:32:00,75.0,72.0,-100.00,NNE,20,2.0,3.0,89,0.00,,,0.02,0.000000,,2013-10-06 04:32:00,
2013-10-05 23:54:00,75.0,72.0,-100.00,NNE,20,2.0,3.0,89,0.00,,,0.02,0.000000,,2013-10-06 04:54:00,